sensor_id;sensor_type;location;lat;lon;timestamp;pressure;altitude;pressure_sealevel;temperature;humidity
39613;BME280;25303;48.896;13.342;2023-02-13T00:00:37;94595.69;;;7.59;54.52
39613;BME280;25303;48.896;13.342;2023-02-13T00:03:20;94601.44;;;7.63;54.69
39613;BME280;25303;48.896;13.342;2023-02-13T00:06:05;94595.22;;;7.67;54.59
39613;BME280;25303;48.896;13.342;2023-02-13T00:08:48;94593.75;;;7.63;54.51
39613;BME280;25303;48.896;13.342;2023-02-13T00:11:31;94593.63;;;7.64;54.54
39613;BME280;25303;48.896;13.342;2023-02-13T00:14:13;94586.16;;;7.61;54.67
39613;BME280;25303;48.896;13.342;2023-02-13T00:16:56;94583.31;;;7.66;54.31
39613;BME280;25303;48.896;13.342;2023-02-13T00:19:40;94588.91;;;7.58;54.54
39613;BME280;25303;48.896;13.342;2023-02-13T00:22:24;94591.56;;;7.56;54.88
39613;BME280;25303;48.896;13.342;2023-02-13T00:25:08;94585.44;;;7.59;54.66
39613;BME280;25303;48.896;13.342;2023-02-13T00:27:51;94587.78;;;7.62;54.61
39613;BME280;25303;48.896;13.342;2023-02-13T00:30:35;94594.06;;;7.71;54.47
39613;BME280;25303;48.896;13.342;2023-02-13T00:33:18;94584.84;;;7.68;54.38
39613;BME280;25303;48.896;13.342;2023-02-13T00:36:05;94594.28;;;7.68;54.37
39613;BME280;25303;48.896;13.342;2023-02-13T00:38:50;94597.47;;;7.71;54.34
39613;BME280;25303;48.896;13.342;2023-02-13T00:41:34;94600.13;;;7.70;54.44
39613;BME280;25303;48.896;13.342;2023-02-13T00:44:16;94595.84;;;7.70;54.21
39613;BME280;25303;48.896;13.342;2023-02-13T00:46:59;94598.41;;;7.70;54.44
39613;BME280;25303;48.896;13.342;2023-02-13T00:49:42;94600.41;;;7.65;54.28
39613;BME280;25303;48.896;13.342;2023-02-13T00:52:25;94606.28;;;7.67;54.38
39613;BME280;25303;48.896;13.342;2023-02-13T00:55:09;94609.09;;;7.77;54.29
39613;BME280;25303;48.896;13.342;2023-02-13T00:57:52;94602.84;;;7.81;54.18
39613;BME280;25303;48.896;13.342;2023-02-13T01:00:35;94607.38;;;7.78;54.31
39613;BME280;25303;48.896;13.342;2023-02-13T01:03:20;94614.50;;;7.72;54.05
39613;BME280;25303;48.896;13.342;2023-02-13T01:06:04;94608.03;;;7.67;54.20
39613;BME280;25303;48.896;13.342;2023-02-13T01:08:47;94612.72;;;7.60;54.21
39613;BME280;25303;48.896;13.342;2023-02-13T01:11:31;94611.69;;;7.63;54.13
39613;BME280;25303;48.896;13.342;2023-02-13T01:14:14;94608.69;;;7.56;54.38
39613;BME280;25303;48.896;13.342;2023-02-13T01:16:57;94611.16;;;7.57;54.66
39613;BME280;25303;48.896;13.342;2023-02-13T01:19:40;94595.69;;;7.59;54.19
39613;BME280;25303;48.896;13.342;2023-02-13T01:22:23;94596.88;;;7.53;54.31
39613;BME280;25303;48.896;13.342;2023-02-13T01:25:06;94593.31;;;7.56;54.34
39613;BME280;25303;48.896;13.342;2023-02-13T01:27:51;94597.09;;;7.50;54.71
39613;BME280;25303;48.896;13.342;2023-02-13T01:30:34;94595.59;;;7.60;54.36
39613;BME280;25303;48.896;13.342;2023-02-13T01:33:17;94595.94;;;7.54;54.40
39613;BME280;25303;48.896;13.342;2023-02-13T01:36:05;94593.50;;;7.53;54.41
39613;BME280;25303;48.896;13.342;2023-02-13T01:38:52;94601.06;;;7.54;54.29
39613;BME280;25303;48.896;13.342;2023-02-13T01:41:35;94598.00;;;7.49;54.47
39613;BME280;25303;48.896;13.342;2023-02-13T01:44:46;94591.22;;;7.48;54.65
39613;BME280;25303;48.896;13.342;2023-02-13T01:47:37;94591.03;;;7.51;54.40
39613;BME280;25303;48.896;13.342;2023-02-13T01:50:24;94597.09;;;7.50;54.34
39613;BME280;25303;48.896;13.342;2023-02-13T01:53:13;94597.56;;;7.42;54.41
39613;BME280;25303;48.896;13.342;2023-02-13T01:56:02;94590.38;;;7.48;54.54
39613;BME280;25303;48.896;13.342;2023-02-13T01:58:49;94585.00;;;7.52;54.50
39613;BME280;25303;48.896;13.342;2023-02-13T02:01:36;94588.38;;;7.53;54.51
39613;BME280;25303;48.896;13.342;2023-02-13T02:04:21;94584.88;;;7.54;54.40
39613;BME280;25303;48.896;13.342;2023-02-13T02:07:09;94581.16;;;7.45;54.41
39613;BME280;25303;48.896;13.342;2023-02-13T02:09:56;94587.38;;;7.41;54.57
39613;BME280;25303;48.896;13.342;2023-02-13T02:12:44;94590.84;;;7.40;54.67
39613;BME280;25303;48.896;13.342;2023-02-13T02:15:30;94584.28;;;7.36;54.79
39613;BME280;25303;48.896;13.342;2023-02-13T02:18:16;94583.63;;;7.47;54.84
39613;BME280;25303;48.896;13.342;2023-02-13T02:21:29;94571.09;;;7.42;54.66
39613;BME280;25303;48.896;13.342;2023-02-13T02:24:40;94563.50;;;7.40;54.77
39613;BME280;25303;48.896;13.342;2023-02-13T02:27:40;94573.03;;;7.38;54.63
39613;BME280;25303;48.896;13.342;2023-02-13T02:33:58;94563.81;;;7.36;54.83
39613;BME280;25303;48.896;13.342;2023-02-13T02:37:01;94553.75;;;7.33;55.04
39613;BME280;25303;48.896;13.342;2023-02-13T02:39:55;94554.19;;;7.39;54.74
39613;BME280;25303;48.896;13.342;2023-02-13T02:42:52;94552.91;;;7.32;54.86
39613;BME280;25303;48.896;13.342;2023-02-13T02:45:48;94545.75;;;7.37;54.76
39613;BME280;25303;48.896;13.342;2023-02-13T02:48:40;94540.53;;;7.39;54.74
39613;BME280;25303;48.896;13.342;2023-02-13T02:51:49;94542.53;;;7.48;54.53
39613;BME280;25303;48.896;13.342;2023-02-13T02:54:39;94545.53;;;7.55;54.24
39613;BME280;25303;48.896;13.342;2023-02-13T02:57:46;94546.69;;;7.36;54.65
39613;BME280;25303;48.896;13.342;2023-02-13T03:00:49;94543.09;;;7.39;54.51
39613;BME280;25303;48.896;13.342;2023-02-13T03:03:51;94546.00;;;7.47;54.36
39613;BME280;25303;48.896;13.342;2023-02-13T03:06:58;94544.38;;;7.46;54.54
39613;BME280;25303;48.896;13.342;2023-02-13T03:09:46;94543.25;;;7.50;54.54
39613;BME280;25303;48.896;13.342;2023-02-13T03:12:51;94547.91;;;7.58;54.39
39613;BME280;25303;48.896;13.342;2023-02-13T03:15:56;94550.72;;;7.53;54.21
39613;BME280;25303;48.896;13.342;2023-02-13T03:18:57;94554.44;;;7.49;54.50
39613;BME280;25303;48.896;13.342;2023-02-13T03:22:04;94557.19;;;7.46;54.63
39613;BME280;25303;48.896;13.342;2023-02-13T03:25:10;94559.59;;;7.35;54.60
39613;BME280;25303;48.896;13.342;2023-02-13T03:27:56;94562.03;;;7.36;54.54
39613;BME280;25303;48.896;13.342;2023-02-13T03:31:03;94556.91;;;7.36;54.83
39613;BME280;25303;48.896;13.342;2023-02-13T03:33:56;94555.72;;;7.42;54.51
39613;BME280;25303;48.896;13.342;2023-02-13T03:36:45;94553.06;;;7.43;54.66
39613;BME280;25303;48.896;13.342;2023-02-13T03:39:56;94551.63;;;7.39;54.94
39613;BME280;25303;48.896;13.342;2023-02-13T03:42:44;94552.88;;;7.47;54.88
39613;BME280;25303;48.896;13.342;2023-02-13T03:45:33;94553.50;;;7.50;54.63
39613;BME280;25303;48.896;13.342;2023-02-13T03:48:39;94542.13;;;7.54;54.57
39613;BME280;25303;48.896;13.342;2023-02-13T03:51:43;94550.72;;;7.53;54.50
39613;BME280;25303;48.896;13.342;2023-02-13T03:54:32;94557.50;;;7.54;54.50
39613;BME280;25303;48.896;13.342;2023-02-13T03:57:38;94553.22;;;7.55;54.60
39613;BME280;25303;48.896;13.342;2023-02-13T04:00:42;94549.19;;;7.51;54.60
39613;BME280;25303;48.896;13.342;2023-02-13T04:03:30;94543.03;;;7.53;54.57
39613;BME280;25303;48.896;13.342;2023-02-13T04:06:20;94544.91;;;7.51;54.66
39613;BME280;25303;48.896;13.342;2023-02-13T04:09:03;94538.75;;;7.54;54.59
39613;BME280;25303;48.896;13.342;2023-02-13T04:11:52;94535.94;;;7.44;54.56
39613;BME280;25303;48.896;13.342;2023-02-13T04:14:43;94530.44;;;7.50;54.54
39613;BME280;25303;48.896;13.342;2023-02-13T04:17:30;94529.25;;;7.56;54.37
39613;BME280;25303;48.896;13.342;2023-02-13T04:20:15;94537.47;;;7.61;54.32
39613;BME280;25303;48.896;13.342;2023-02-13T04:23:04;94533.78;;;7.65;54.23
39613;BME280;25303;48.896;13.342;2023-02-13T04:25:50;94538.56;;;7.57;54.21
39613;BME280;25303;48.896;13.342;2023-02-13T04:28:33;94538.31;;;7.47;54.42
39613;BME280;25303;48.896;13.342;2023-02-13T04:31:18;94536.97;;;7.41;54.51
39613;BME280;25303;48.896;13.342;2023-02-13T04:34:01;94535.13;;;7.43;54.59
39613;BME280;25303;48.896;13.342;2023-02-13T04:36:43;94536.50;;;7.49;54.42
39613;BME280;25303;48.896;13.342;2023-02-13T04:39:26;94530.63;;;7.47;54.42
39613;BME280;25303;48.896;13.342;2023-02-13T04:42:09;94533.81;;;7.51;54.28
39613;BME280;25303;48.896;13.342;2023-02-13T04:44:52;94540.53;;;7.39;54.59
39613;BME280;25303;48.896;13.342;2023-02-13T04:47:36;94539.97;;;7.48;54.36
39613;BME280;25303;48.896;13.342;2023-02-13T04:50:19;94540.06;;;7.47;54.49
39613;BME280;25303;48.896;13.342;2023-02-13T04:53:02;94540.97;;;7.45;54.49
39613;BME280;25303;48.896;13.342;2023-02-13T04:55:45;94546.19;;;7.44;54.65
39613;BME280;25303;48.896;13.342;2023-02-13T04:58:28;94540.88;;;7.47;54.38
39613;BME280;25303;48.896;13.342;2023-02-13T05:01:11;94536.78;;;7.44;54.64
39613;BME280;25303;48.896;13.342;2023-02-13T05:03:56;94537.69;;;7.43;54.67
39613;BME280;25303;48.896;13.342;2023-02-13T05:06:38;94535.22;;;7.42;54.64
39613;BME280;25303;48.896;13.342;2023-02-13T05:09:21;94539.63;;;7.40;54.61
39613;BME280;25303;48.896;13.342;2023-02-13T05:12:05;94536.25;;;7.39;54.56
39613;BME280;25303;48.896;13.342;2023-02-13T05:14:48;94537.06;;;7.40;54.57
39613;BME280;25303;48.896;13.342;2023-02-13T05:17:30;94536.88;;;7.43;54.34
39613;BME280;25303;48.896;13.342;2023-02-13T05:20:15;94537.16;;;7.38;54.40
39613;BME280;25303;48.896;13.342;2023-02-13T05:22:58;94539.09;;;7.35;54.43
39613;BME280;25303;48.896;13.342;2023-02-13T05:25:58;94531.50;;;7.33;54.62
39613;BME280;25303;48.896;13.342;2023-02-13T05:28:41;94538.66;;;7.28;54.50
39613;BME280;25303;48.896;13.342;2023-02-13T05:31:42;94543.22;;;7.23;54.63
39613;BME280;25303;48.896;13.342;2023-02-13T05:34:26;94548.34;;;7.23;54.61
39613;BME280;25303;48.896;13.342;2023-02-13T05:37:10;94549.34;;;7.20;54.79
39613;BME280;25303;48.896;13.342;2023-02-13T05:39:53;94548.81;;;7.15;54.89
39613;BME280;25303;48.896;13.342;2023-02-13T05:42:36;94550.53;;;7.14;54.95
39613;BME280;25303;48.896;13.342;2023-02-13T05:45:18;94553.31;;;7.11;55.04
39613;BME280;25303;48.896;13.342;2023-02-13T05:48:01;94549.38;;;7.06;55.33
39613;BME280;25303;48.896;13.342;2023-02-13T05:50:45;94550.28;;;7.05;55.15
39613;BME280;25303;48.896;13.342;2023-02-13T05:53:29;94548.84;;;7.01;55.47
39613;BME280;25303;48.896;13.342;2023-02-13T05:56:15;94556.94;;;7.22;54.99
39613;BME280;25303;48.896;13.342;2023-02-13T05:58:58;94557.28;;;7.30;54.78
39613;BME280;25303;48.896;13.342;2023-02-13T06:01:41;94560.28;;;7.37;54.48
39613;BME280;25303;48.896;13.342;2023-02-13T06:04:24;94561.47;;;7.45;54.49
39613;BME280;25303;48.896;13.342;2023-02-13T06:07:07;94560.06;;;7.54;54.09
39613;BME280;25303;48.896;13.342;2023-02-13T06:09:51;94561.53;;;7.58;54.19
39613;BME280;25303;48.896;13.342;2023-02-13T06:12:34;94561.53;;;7.58;54.05
39613;BME280;25303;48.896;13.342;2023-02-13T06:15:17;94571.00;;;7.43;54.26
39613;BME280;25303;48.896;13.342;2023-02-13T06:18:00;94574.56;;;7.41;54.17
39613;BME280;25303;48.896;13.342;2023-02-13T06:20:43;94574.75;;;7.38;54.46
39613;BME280;25303;48.896;13.342;2023-02-13T06:23:25;94575.97;;;7.32;54.30
39613;BME280;25303;48.896;13.342;2023-02-13T06:26:10;94576.50;;;7.37;54.34
39613;BME280;25303;48.896;13.342;2023-02-13T06:28:52;94570.94;;;7.30;54.37
39613;BME280;25303;48.896;13.342;2023-02-13T06:31:35;94588.03;;;7.30;54.37
39613;BME280;25303;48.896;13.342;2023-02-13T06:34:18;94584.84;;;7.26;54.58
39613;BME280;25303;48.896;13.342;2023-02-13T06:37:01;94579.91;;;7.23;54.54
39613;BME280;25303;48.896;13.342;2023-02-13T06:39:44;94590.69;;;7.28;54.33
39613;BME280;25303;48.896;13.342;2023-02-13T06:42:28;94587.03;;;7.33;54.44
39613;BME280;25303;48.896;13.342;2023-02-13T06:45:11;94586.50;;;7.27;54.68
39613;BME280;25303;48.896;13.342;2023-02-13T06:47:54;94590.22;;;7.36;54.30
39613;BME280;25303;48.896;13.342;2023-02-13T06:50:37;94579.53;;;7.29;54.47
39613;BME280;25303;48.896;13.342;2023-02-13T06:53:20;94591.50;;;7.29;54.44
39613;BME280;25303;48.896;13.342;2023-02-13T06:56:05;94591.00;;;7.24;54.51
39613;BME280;25303;48.896;13.342;2023-02-13T06:58:49;94596.28;;;7.21;54.60
39613;BME280;25303;48.896;13.342;2023-02-13T07:01:32;94603.16;;;7.35;54.41
39613;BME280;25303;48.896;13.342;2023-02-13T07:04:15;94601.13;;;7.25;54.54
39613;BME280;25303;48.896;13.342;2023-02-13T07:06:58;94603.06;;;7.22;54.53
39613;BME280;25303;48.896;13.342;2023-02-13T07:09:41;94609.44;;;7.29;54.17
39613;BME280;25303;48.896;13.342;2023-02-13T07:12:23;94605.34;;;7.26;54.39
39613;BME280;25303;48.896;13.342;2023-02-13T07:15:08;94609.00;;;7.22;54.36
39613;BME280;25303;48.896;13.342;2023-02-13T07:17:55;94609.00;;;7.22;54.38
39613;BME280;25303;48.896;13.342;2023-02-13T07:20:37;94620.25;;;7.20;54.36
39613;BME280;25303;48.896;13.342;2023-02-13T07:23:20;94622.00;;;7.19;54.53
39613;BME280;25303;48.896;13.342;2023-02-13T07:26:03;94616.03;;;7.19;54.53
39613;BME280;25303;48.896;13.342;2023-02-13T07:28:46;94620.53;;;7.15;54.34
39613;BME280;25303;48.896;13.342;2023-02-13T07:31:33;94628.84;;;7.19;54.47
39613;BME280;25303;48.896;13.342;2023-02-13T07:34:16;94622.81;;;7.20;54.53
39613;BME280;25303;48.896;13.342;2023-02-13T07:36:59;94629.69;;;7.34;54.26
39613;BME280;25303;48.896;13.342;2023-02-13T07:39:42;94625.47;;;7.33;54.22
39613;BME280;25303;48.896;13.342;2023-02-13T07:42:24;94630.03;;;7.27;54.55
39613;BME280;25303;48.896;13.342;2023-02-13T07:45:08;94620.88;;;7.23;54.48
39613;BME280;25303;48.896;13.342;2023-02-13T07:47:55;94628.69;;;7.22;54.51
39613;BME280;25303;48.896;13.342;2023-02-13T07:50:38;94632.31;;;7.32;54.29
39613;BME280;25303;48.896;13.342;2023-02-13T07:53:21;94625.09;;;7.24;54.66
39613;BME280;25303;48.896;13.342;2023-02-13T07:56:05;94623.91;;;7.30;54.50
39613;BME280;25303;48.896;13.342;2023-02-13T07:58:48;94621.34;;;7.44;54.12
39613;BME280;25303;48.896;13.342;2023-02-13T08:01:30;94621.59;;;7.40;54.41
39613;BME280;25303;48.896;13.342;2023-02-13T08:04:15;94626.72;;;7.40;54.41
39613;BME280;25303;48.896;13.342;2023-02-13T08:06:57;94629.66;;;7.48;53.95
39613;BME280;25303;48.896;13.342;2023-02-13T08:09:42;94626.91;;;7.37;54.34
39613;BME280;25303;48.896;13.342;2023-02-13T08:12:43;94629.28;;;7.40;54.29
39613;BME280;25303;48.896;13.342;2023-02-13T08:15:26;94625.66;;;7.29;54.32
39613;BME280;25303;48.896;13.342;2023-02-13T08:18:09;94631.03;;;7.39;54.25
39613;BME280;25303;48.896;13.342;2023-02-13T08:20:54;94628.66;;;7.36;54.19
39613;BME280;25303;48.896;13.342;2023-02-13T08:23:36;94632.31;;;7.32;54.43
39613;BME280;25303;48.896;13.342;2023-02-13T08:26:19;94628.75;;;7.49;53.97
39613;BME280;25303;48.896;13.342;2023-02-13T08:29:03;94636.69;;;7.59;53.77
39613;BME280;25303;48.896;13.342;2023-02-13T08:31:46;94633.69;;;7.38;54.04
39613;BME280;25303;48.896;13.342;2023-02-13T08:34:29;94632.31;;;7.32;54.57
39613;BME280;25303;48.896;13.342;2023-02-13T08:37:15;94632.75;;;7.39;54.44
39613;BME280;25303;48.896;13.342;2023-02-13T08:39:58;94630.56;;;7.47;54.42
39613;BME280;25303;48.896;13.342;2023-02-13T08:42:40;94635.41;;;7.52;54.29
39613;BME280;25303;48.896;13.342;2023-02-13T08:45:24;94640.66;;;7.50;54.04
39613;BME280;25303;48.896;13.342;2023-02-13T08:48:06;94641.06;;;7.71;53.49
39613;BME280;25303;48.896;13.342;2023-02-13T08:50:49;94635.13;;;7.56;53.82
39613;BME280;25303;48.896;13.342;2023-02-13T08:53:34;94646.03;;;7.60;53.90
39613;BME280;25303;48.896;13.342;2023-02-13T08:56:17;94649.41;;;7.60;53.79
39613;BME280;25303;48.896;13.342;2023-02-13T08:59:00;94645.56;;;7.53;53.50
39613;BME280;25303;48.896;13.342;2023-02-13T09:01:42;94653.34;;;7.52;53.38
39613;BME280;25303;48.896;13.342;2023-02-13T09:04:26;94648.59;;;7.45;53.54
39613;BME280;25303;48.896;13.342;2023-02-13T09:07:08;94654.84;;;7.41;53.67
39613;BME280;25303;48.896;13.342;2023-02-13T09:09:53;94643.84;;;7.54;53.81
39613;BME280;25303;48.896;13.342;2023-02-13T09:12:35;94639.06;;;7.62;53.58
39613;BME280;25303;48.896;13.342;2023-02-13T09:15:18;94644.66;;;7.69;53.49
39613;BME280;25303;48.896;13.342;2023-02-13T09:18:01;94643.34;;;7.76;53.33
39613;BME280;25303;48.896;13.342;2023-02-13T09:20:44;94645.41;;;7.84;52.97
39613;BME280;25303;48.896;13.342;2023-02-13T09:23:29;94638.09;;;7.92;52.70
39613;BME280;25303;48.896;13.342;2023-02-13T09:26:15;94631.63;;;7.99;53.00
39613;BME280;25303;48.896;13.342;2023-02-13T09:29:00;94630.66;;;8.15;52.77
39613;BME280;25303;48.896;13.342;2023-02-13T09:31:43;94631.94;;;8.22;52.59
39613;BME280;25303;48.896;13.342;2023-02-13T09:34:26;94634.31;;;8.25;52.31
39613;BME280;25303;48.896;13.342;2023-02-13T09:37:09;94635.34;;;8.35;52.11
39613;BME280;25303;48.896;13.342;2023-02-13T09:39:52;94634.53;;;8.35;52.29
39613;BME280;25303;48.896;13.342;2023-02-13T09:42:37;94636.38;;;8.46;52.02
39613;BME280;25303;48.896;13.342;2023-02-13T09:45:20;94639.88;;;8.45;51.89
39613;BME280;25303;48.896;13.342;2023-02-13T09:48:04;94640.81;;;8.44;51.89
39613;BME280;25303;48.896;13.342;2023-02-13T09:50:47;94647.69;;;8.43;51.86
39613;BME280;25303;48.896;13.342;2023-02-13T09:53:30;94644.31;;;8.43;51.71
39613;BME280;25303;48.896;13.342;2023-02-13T09:56:16;94648.59;;;8.42;51.83
39613;BME280;25303;48.896;13.342;2023-02-13T09:59:13;94638.03;;;8.47;51.57
39613;BME280;25303;48.896;13.342;2023-02-13T10:01:59;94648.25;;;8.48;51.49
39613;BME280;25303;48.896;13.342;2023-02-13T10:04:48;94648.25;;;8.48;51.77
39613;BME280;25303;48.896;13.342;2023-02-13T10:07:38;94645.19;;;8.56;51.64
39613;BME280;25303;48.896;13.342;2023-02-13T10:10:33;94640.66;;;8.60;51.61
39613;BME280;25303;48.896;13.342;2023-02-13T10:13:34;94649.28;;;8.59;51.42
39613;BME280;25303;48.896;13.342;2023-02-13T10:16:27;94648.75;;;8.54;51.36
39613;BME280;25303;48.896;13.342;2023-02-13T10:19:18;94644.69;;;8.64;51.02
39613;BME280;25303;48.896;13.342;2023-02-13T10:22:09;94646.13;;;8.68;51.04
39613;BME280;25303;48.896;13.342;2023-02-13T10:24:56;94647.78;;;8.82;50.76
39613;BME280;25303;48.896;13.342;2023-02-13T10:27:43;94648.19;;;8.76;50.97
39613;BME280;25303;48.896;13.342;2023-02-13T10:30:29;94646.31;;;8.78;50.72
39613;BME280;25303;48.896;13.342;2023-02-13T10:33:18;94643.38;;;8.97;50.37
39613;BME280;25303;48.896;13.342;2023-02-13T10:36:08;94643.97;;;8.88;50.59
39613;BME280;25303;48.896;13.342;2023-02-13T10:38:59;94651.25;;;8.81;50.55
39613;BME280;25303;48.896;13.342;2023-02-13T10:41:48;94652.78;;;8.58;49.96
39613;BME280;25303;48.896;13.342;2023-02-13T10:44:40;94653.09;;;8.66;50.44
39613;BME280;25303;48.896;13.342;2023-02-13T10:47:46;94654.88;;;8.78;50.42
39613;BME280;25303;48.896;13.342;2023-02-13T10:50:39;94656.31;;;8.82;50.45
39613;BME280;25303;48.896;13.342;2023-02-13T10:53:35;94646.84;;;8.83;50.61
39613;BME280;25303;48.896;13.342;2023-02-13T10:56:29;94644.69;;;8.90;50.21
39613;BME280;25303;48.896;13.342;2023-02-13T10:59:34;94641.00;;;8.81;50.28
39613;BME280;25303;48.896;13.342;2023-02-13T11:02:24;94642.75;;;8.80;50.40
39613;BME280;25303;48.896;13.342;2023-02-13T11:05:15;94645.50;;;8.77;50.26
39613;BME280;25303;48.896;13.342;2023-02-13T11:08:00;94645.72;;;8.87;50.19
39613;BME280;25303;48.896;13.342;2023-02-13T11:10:43;94641.31;;;8.89;50.33
39613;BME280;25303;48.896;13.342;2023-02-13T11:13:28;94642.31;;;8.87;50.36
39613;BME280;25303;48.896;13.342;2023-02-13T11:16:11;94640.41;;;8.90;49.73
39613;BME280;25303;48.896;13.342;2023-02-13T11:18:54;94638.31;;;8.95;50.06
39613;BME280;25303;48.896;13.342;2023-02-13T11:21:37;94639.03;;;8.97;49.99
39613;BME280;25303;48.896;13.342;2023-02-13T11:24:24;94640.47;;;8.89;49.91
39613;BME280;25303;48.896;13.342;2023-02-13T11:27:09;94636.47;;;8.97;49.84
39613;BME280;25303;48.896;13.342;2023-02-13T11:29:56;94631.25;;;8.99;49.87
39613;BME280;25303;48.896;13.342;2023-02-13T11:32:39;94635.47;;;9.00;49.87
39613;BME280;25303;48.896;13.342;2023-02-13T11:35:27;94636.69;;;8.94;49.86
39613;BME280;25303;48.896;13.342;2023-02-13T11:38:22;94639.25;;;8.94;49.95
39613;BME280;25303;48.896;13.342;2023-02-13T11:41:09;94637.53;;;9.08;49.69
39613;BME280;25303;48.896;13.342;2023-02-13T11:43:53;94639.78;;;9.12;49.77
39613;BME280;25303;48.896;13.342;2023-02-13T11:46:45;94639.78;;;9.12;49.75
39613;BME280;25303;48.896;13.342;2023-02-13T11:49:30;94645.13;;;9.09;49.58
39613;BME280;25303;48.896;13.342;2023-02-13T11:52:23;94645.72;;;9.13;49.84
39613;BME280;25303;48.896;13.342;2023-02-13T11:55:23;94643.47;;;9.21;49.70
39613;BME280;25303;48.896;13.342;2023-02-13T11:58:22;94632.16;;;9.24;49.59
39613;BME280;25303;48.896;13.342;2023-02-13T12:01:09;94634.63;;;9.25;49.42
39613;BME280;25303;48.896;13.342;2023-02-13T12:04:01;94629.69;;;9.22;49.52
39613;BME280;25303;48.896;13.342;2023-02-13T12:06:58;94629.69;;;9.22;49.40
39613;BME280;25303;48.896;13.342;2023-02-13T12:09:43;94635.63;;;9.36;49.34
39613;BME280;25303;48.896;13.342;2023-02-13T12:12:33;94629.06;;;9.32;49.50
39613;BME280;25303;48.896;13.342;2023-02-13T12:15:21;94623.91;;;9.32;49.29
39613;BME280;25303;48.896;13.342;2023-02-13T12:18:12;94623.00;;;9.33;49.21
39613;BME280;25303;48.896;13.342;2023-02-13T12:21:04;94617.44;;;9.26;49.21
39613;BME280;25303;48.896;13.342;2023-02-13T12:23:57;94623.44;;;9.26;49.20
39613;BME280;25303;48.896;13.342;2023-02-13T12:26:44;94618.91;;;9.30;49.21
39613;BME280;25303;48.896;13.342;2023-02-13T12:30:06;94614.97;;;9.37;48.97
39613;BME280;25303;48.896;13.342;2023-02-13T12:32:58;94616.50;;;9.40;48.85
39613;BME280;25303;48.896;13.342;2023-02-13T12:35:48;94607.88;;;9.41;49.04
39613;BME280;25303;48.896;13.342;2023-02-13T12:38:50;94600.38;;;9.38;49.00
39613;BME280;25303;48.896;13.342;2023-02-13T12:41:41;94603.03;;;9.36;49.03
39613;BME280;25303;48.896;13.342;2023-02-13T12:44:53;94599.16;;;9.31;48.83
39613;BME280;25303;48.896;13.342;2023-02-13T12:47:48;94596.56;;;9.31;49.10
39613;BME280;25303;48.896;13.342;2023-02-13T12:50:54;94590.41;;;9.33;49.00
39613;BME280;25303;48.896;13.342;2023-02-13T12:53:53;94588.53;;;9.35;48.89
39613;BME280;25303;48.896;13.342;2023-02-13T12:56:54;94587.53;;;9.38;48.93
39613;BME280;25303;48.896;13.342;2023-02-13T12:59:50;94583.72;;;9.31;49.06
39613;BME280;25303;48.896;13.342;2023-02-13T13:02:58;94582.00;;;9.31;48.90
39613;BME280;25303;48.896;13.342;2023-02-13T13:05:57;94583.63;;;9.32;48.89
39613;BME280;25303;48.896;13.342;2023-02-13T13:09:16;94587.72;;;9.35;48.65
39613;BME280;25303;48.896;13.342;2023-02-13T13:12:27;94593.78;;;9.34;48.79
39613;BME280;25303;48.896;13.342;2023-02-13T13:15:20;94593.69;;;9.35;48.50
39613;BME280;25303;48.896;13.342;2023-02-13T13:18:17;94593.69;;;9.35;48.51
39613;BME280;25303;48.896;13.342;2023-02-13T13:21:13;94598.34;;;9.30;48.83
39613;BME280;25303;48.896;13.342;2023-02-13T13:24:04;94591.63;;;9.40;48.63
39613;BME280;25303;48.896;13.342;2023-02-13T13:26:50;94607.56;;;9.33;48.80
39613;BME280;25303;48.896;13.342;2023-02-13T13:29:39;94598.34;;;9.30;48.60
39613;BME280;25303;48.896;13.342;2023-02-13T13:32:25;94598.41;;;9.28;48.76
39613;BME280;25303;48.896;13.342;2023-02-13T13:35:12;94600.91;;;9.30;48.77
39613;BME280;25303;48.896;13.342;2023-02-13T13:38:04;94593.78;;;9.34;48.74
39613;BME280;25303;48.896;13.342;2023-02-13T13:40:53;94592.88;;;9.35;48.64
39613;BME280;25303;48.896;13.342;2023-02-13T13:43:51;94591.22;;;9.34;48.63
39613;BME280;25303;48.896;13.342;2023-02-13T13:46:46;94588.31;;;9.38;48.53
39613;BME280;25303;48.896;13.342;2023-02-13T13:49:36;94584.13;;;9.37;48.32
39613;BME280;25303;48.896;13.342;2023-02-13T13:52:26;94585.66;;;9.40;48.64
39613;BME280;25303;48.896;13.342;2023-02-13T13:58:40;94577.84;;;9.41;48.13
39613;BME280;25303;48.896;13.342;2023-02-13T14:01:25;94578.75;;;9.40;48.15
39613;BME280;25303;48.896;13.342;2023-02-13T14:04:37;94580.03;;;9.35;48.37
39613;BME280;25303;48.896;13.342;2023-02-13T14:07:23;94572.91;;;9.38;48.14
39613;BME280;25303;48.896;13.342;2023-02-13T14:13:29;94572.09;;;9.75;47.39
39613;BME280;25303;48.896;13.342;2023-02-13T14:16:37;94566.59;;;10.04;46.61
39613;BME280;25303;48.896;13.342;2023-02-13T14:19:24;94561.72;;;10.12;46.25
39613;BME280;25303;48.896;13.342;2023-02-13T14:22:32;94564.25;;;10.37;45.73
39613;BME280;25303;48.896;13.342;2023-02-13T14:25:22;94564.78;;;10.53;45.42
39613;BME280;25303;48.896;13.342;2023-02-13T14:28:05;94567.97;;;10.57;45.20
39613;BME280;25303;48.896;13.342;2023-02-13T14:30:49;94565.53;;;10.89;44.49
39613;BME280;25303;48.896;13.342;2023-02-13T14:33:36;94557.72;;;11.02;43.97
39613;BME280;25303;48.896;13.342;2023-02-13T14:36:20;94557.94;;;11.10;43.63
39613;BME280;25303;48.896;13.342;2023-02-13T14:39:19;94553.50;;;11.24;43.20
39613;BME280;25303;48.896;13.342;2023-02-13T14:42:21;94549.28;;;11.23;43.17
39613;BME280;25303;48.896;13.342;2023-02-13T14:45:12;94558.72;;;11.45;42.70
39613;BME280;25303;48.896;13.342;2023-02-13T14:48:03;94557.63;;;11.70;42.16
39613;BME280;25303;48.896;13.342;2023-02-13T14:50:49;94556.88;;;12.45;40.95
39613;BME280;25303;48.896;13.342;2023-02-13T14:53:46;94567.53;;;6.29;53.08
39613;BME280;25303;48.896;13.342;2023-02-13T14:56:31;94573.78;;;4.47;60.03
39613;BME280;25303;48.896;13.342;2023-02-13T14:59:17;94567.41;;;3.85;62.97
39613;BME280;25303;48.896;13.342;2023-02-13T15:02:13;94562.88;;;3.55;64.46